Terminal Aerodrome Forecast
Issued by NWS Knoxville/Tri Cities, TN

Home | Current Version | Previous Version | Text Only | Print | Product List | Glossary On
Versions: 1 2 3 4 5 6 7 8 9 10 11 12 13 14 15 16 17 18 19 20 21 22 23 24 25 26 27 28 29 30 31 32 33 34 35 36 37 38 39 40 41 42 43
000
FTUS44 KMRX 211001 AAB
TAFTYS
TAF AMD
KTYS 211001Z 2110/2206 VRB02KT 4SM BR SCT002
      TEMPO 2110/2112 2SM BR BKN002
     FM211230 VRB02KT 5SM HZ SCT005 BKN250
     FM211300 23004KT P6SM FEW030 BKN250
     FM212100 25008KT P6SM VCTS BKN050CB
     FM220200 22004KT P6SM SCT060 BKN120=

USA.gov is the U.S. government's official web portal to all federal, state and local government web resources and services.